Time;durP1;ratioP1;P1;durP2;ratioP2;P2;SDS_P1;SDS_P2;PMS_P1;PMS_P2;Temp;Humidity;BMP_temperature;BMP_pressure;BME280_temperature;BME280_humidity;BME280_pressure;Samples;Min_cycle;Max_cycle;Signal;HPM_P1;HPM_P2
2021/05/21 00:00:27;;;;;;;1.60;1.50;;;7.00;99.90;;;;;;2105572;28;20186;-66
2021/05/21 00:01:30;;;;;;;1.97;1.77;;;7.00;99.90;;;;;;2105627;28;20194;-66
2021/05/21 00:02:31;;;;;;;2.00;1.60;;;7.00;99.90;;;;;;2105594;28;20806;-66
2021/05/21 00:03:31;;;;;;;2.23;1.33;;;7.00;99.90;;;;;;2105738;28;20186;-66
2021/05/21 00:04:32;;;;;;;3.00;1.60;;;7.00;99.90;;;;;;2105616;28;20555;-66
2021/05/21 00:05:33;;;;;;;1.33;1.23;;;7.10;99.90;;;;;;2105578;28;20206;-66
2021/05/21 00:06:34;;;;;;;1.77;1.40;;;7.00;99.90;;;;;;2105705;28;20182;-66
2021/05/21 00:07:35;;;;;;;1.90;1.50;;;7.10;99.90;;;;;;2105622;28;20412;-65
2021/05/21 00:08:35;;;;;;;1.87;1.20;;;7.00;99.90;;;;;;2105623;28;20492;-66
2021/05/21 00:09:36;;;;;;;1.60;1.43;;;7.00;99.90;;;;;;2106156;28;20202;-65
2021/05/21 00:10:37;;;;;;;2.33;1.50;;;7.00;99.90;;;;;;2105811;28;20220;-65
2021/05/21 00:11:38;;;;;;;1.40;1.30;;;7.00;99.90;;;;;;2104937;28;20239;-66
2021/05/21 00:12:39;;;;;;;1.30;1.20;;;7.00;99.90;;;;;;2105287;28;20682;-65
2021/05/21 00:13:40;;;;;;;1.50;1.20;;;7.00;99.90;;;;;;2105885;28;20215;-66
2021/05/21 00:14:40;;;;;;;1.90;1.20;;;7.00;99.90;;;;;;2105861;28;20175;-65
2021/05/21 00:15:42;;;;;;;3.70;1.30;;;7.00;99.90;;;;;;2105780;28;20211;-66
2021/05/21 00:16:42;;;;;;;1.38;1.13;;;7.00;99.90;;;;;;2105358;28;20239;-66
2021/05/21 00:17:43;;;;;;;1.77;1.40;;;6.90;99.90;;;;;;2105469;28;20308;-66
2021/05/21 00:18:47;;;;;;;1.77;1.40;;;7.00;99.90;;;;;;2105559;28;20171;-66
2021/05/21 00:19:48;;;;;;;1.40;1.30;;;7.00;99.90;;;;;;2105482;28;20251;-65
2021/05/21 00:20:49;;;;;;;1.70;1.60;;;7.00;99.90;;;;;;2105469;28;20186;-66
2021/05/21 00:21:50;;;;;;;1.60;1.33;;;7.00;99.90;;;;;;2105105;28;20224;-66
2021/05/21 00:22:50;;;;;;;1.67;1.40;;;7.00;99.90;;;;;;2105617;28;20179;-65
2021/05/21 00:23:51;;;;;;;1.60;1.40;;;6.90;99.90;;;;;;2105434;28;20225;-66
2021/05/21 00:24:52;;;;;;;2.53;1.47;;;6.90;99.90;;;;;;2105616;28;20218;-65
2021/05/21 00:25:52;;;;;;;2.33;1.47;;;6.80;99.90;;;;;;2105275;28;20198;-66
2021/05/21 00:26:53;;;;;;;1.30;1.20;;;6.80;99.90;;;;;;2105466;28;20179;-66
2021/05/21 00:27:55;;;;;;;2.03;1.63;;;6.80;99.90;;;;;;2105267;28;20178;-65
2021/05/21 00:28:56;;;;;;;3.53;1.42;;;6.80;99.90;;;;;;2105519;28;20178;-65
2021/05/21 00:29:57;;;;;;;2.53;1.63;;;6.80;99.90;;;;;;2105347;28;20343;-66
2021/05/21 00:30:58;;;;;;;1.77;1.10;;;6.80;99.90;;;;;;2105570;28;20179;-66
2021/05/21 00:31:59;;;;;;;2.43;1.47;;;6.80;99.90;;;;;;2105112;28;20185;-66
2021/05/21 00:32:59;;;;;;;1.47;1.20;;;6.80;99.90;;;;;;2105409;28;20175;-66
2021/05/21 00:34:00;;;;;;;1.63;1.40;;;6.80;99.90;;;;;;2105417;28;20175;-65
2021/05/21 00:35:01;;;;;;;1.70;1.60;;;6.80;99.90;;;;;;2105507;28;20183;-65
2021/05/21 00:36:02;;;;;;;1.50;1.40;;;6.80;99.90;;;;;;2105331;28;20623;-66
2021/05/21 00:37:03;;;;;;;2.17;1.50;;;6.80;99.90;;;;;;2105451;28;20590;-66
2021/05/21 00:38:05;;;;;;;1.40;1.30;;;6.80;99.90;;;;;;2104553;28;20175;-66
2021/05/21 00:39:06;;;;;;;4.28;1.80;;;6.80;99.90;;;;;;2104917;28;20187;-66
2021/05/21 00:40:08;;;;;;;1.47;1.30;;;6.70;99.90;;;;;;2105397;28;20534;-65
2021/05/21 00:41:09;;;;;;;1.98;1.50;;;6.70;99.90;;;;;;2105334;28;20178;-66
2021/05/21 00:42:10;;;;;;;1.58;1.48;;;6.70;99.90;;;;;;2105261;28;20233;-66
2021/05/21 00:43:10;;;;;;;1.80;1.40;;;6.70;99.90;;;;;;2105454;28;20248;-65
2021/05/21 00:44:12;;;;;;;1.63;1.50;;;6.70;99.90;;;;;;2105280;28;20644;-66
2021/05/21 00:45:13;;;;;;;1.38;1.25;;;6.70;99.90;;;;;;2105245;28;20239;-66
2021/05/21 00:46:14;;;;;;;2.20;1.50;;;6.70;99.90;;;;;;2105315;28;20601;-66
2021/05/21 00:47:14;;;;;;;3.60;1.60;;;6.70;99.90;;;;;;2105381;28;20265;-65
2021/05/21 00:48:15;;;;;;;1.50;1.30;;;6.60;99.90;;;;;;2105400;28;20183;-66
2021/05/21 00:49:19;;;;;;;2.27;1.60;;;6.60;99.90;;;;;;2105375;28;20239;-66
2021/05/21 00:50:19;;;;;;;3.28;1.67;;;6.60;99.90;;;;;;2105322;28;20729;-66
2021/05/21 00:51:21;;;;;;;2.17;1.43;;;6.60;99.90;;;;;;2106696;28;20175;-66
2021/05/21 00:52:23;;;;;;;2.58;1.50;;;6.60;99.90;;;;;;2108142;28;20183;-65
2021/05/21 00:53:29;;;;;;;2.40;1.40;;;6.50;99.90;;;;;;2108083;28;20869;-66
2021/05/21 00:54:30;;;;;;;3.08;1.30;;;6.50;99.90;;;;;;2107994;28;20548;-66
2021/05/21 00:55:32;;;;;;;1.67;1.48;;;6.50;99.90;;;;;;2107470;28;20187;-65
2021/05/21 00:56:33;;;;;;;1.67;1.58;;;6.50;99.90;;;;;;2107518;28;20179;-65
2021/05/21 00:57:35;;;;;;;1.70;1.50;;;6.50;99.90;;;;;;2108109;28;20228;-66
2021/05/21 00:58:36;;;;;;;1.58;1.30;;;6.50;99.90;;;;;;2108197;28;20424;-65
2021/05/21 00:59:38;;;;;;;1.48;1.25;;;6.60;99.90;;;;;;2107900;28;20591;-66
2021/05/21 01:00:39;;;;;;;2.15;1.38;;;6.60;99.90;;;;;;2108324;28;20183;-66
2021/05/21 01:01:40;;;;;;;1.55;1.30;;;6.50;99.90;;;;;;2107830;28;20182;-65
2021/05/21 01:02:41;;;;;;;1.77;1.42;;;6.60;99.90;;;;;;2108108;28;20281;-65
2021/05/21 01:03:42;;;;;;;1.57;1.20;;;6.60;99.90;;;;;;2108081;28;20186;-65
2021/05/21 01:04:43;;;;;;;1.55;1.45;;;6.50;99.90;;;;;;2108266;28;20181;-65
2021/05/21 01:05:43;;;;;;;1.63;1.30;;;6.50;99.90;;;;;;2107894;28;20706;-66
2021/05/21 01:06:44;;;;;;;2.90;1.47;;;6.50;99.90;;;;;;2108298;28;20179;-65
2021/05/21 01:07:45;;;;;;;1.53;1.43;;;6.50;99.90;;;;;;2108031;28;20234;-65
2021/05/21 01:08:46;;;;;;;2.43;1.50;;;6.40;99.90;;;;;;2108215;28;20202;-65
2021/05/21 01:09:46;;;;;;;1.87;1.50;;;6.40;99.90;;;;;;2107927;28;20203;-65
2021/05/21 01:10:47;;;;;;;2.83;1.57;;;6.40;99.90;;;;;;2108034;28;20249;-65
2021/05/21 01:11:48;;;;;;;1.60;1.50;;;6.40;99.90;;;;;;2107819;28;20171;-65
2021/05/21 01:12:49;;;;;;;1.30;1.20;;;6.40;99.90;;;;;;2108166;28;20178;-65
2021/05/21 01:13:50;;;;;;;1.60;1.20;;;6.40;99.90;;;;;;2108113;28;20260;-66
2021/05/21 01:14:54;;;;;;;1.85;1.30;;;6.40;99.90;;;;;;2107617;28;20704;-66
2021/05/21 01:15:55;;;;;;;2.20;1.10;;;6.40;99.90;;;;;;2107334;28;20336;-66
2021/05/21 01:16:56;;;;;;;1.30;1.20;;;6.40;99.90;;;;;;2108290;28;20697;-66
2021/05/21 01:17:56;;;;;;;2.03;1.30;;;6.40;99.90;;;;;;2108078;28;20199;-66
2021/05/21 01:19:03;;;;;;;1.53;1.00;;;6.40;99.90;;;;;;2108175;28;20523;-65
2021/05/21 01:20:06;;;;;;;1.30;1.20;;;6.40;99.90;;;;;;2108015;28;20229;-66
2021/05/21 01:21:08;;;;;;;1.98;1.20;;;6.40;99.90;;;;;;2107073;28;20590;-65
2021/05/21 01:22:10;;;;;;;1.25;1.10;;;6.40;99.90;;;;;;2107191;28;20183;-65
2021/05/21 01:23:10;;;;;;;1.80;1.58;;;6.40;99.90;;;;;;2108258;28;20179;-66
2021/05/21 01:24:11;;;;;;;1.83;1.20;;;6.40;99.90;;;;;;2107989;28;20182;-65
2021/05/21 01:25:12;;;;;;;1.85;1.30;;;6.40;99.90;;;;;;2108069;28;20171;-66
2021/05/21 01:26:14;;;;;;;1.20;1.10;;;6.40;99.90;;;;;;2107837;28;20648;-66
2021/05/21 01:27:16;;;;;;;1.30;1.20;;;6.40;99.90;;;;;;2107450;28;20179;-65
2021/05/21 01:28:18;;;;;;;1.30;1.20;;;6.40;99.90;;;;;;2107389;28;20193;-65
2021/05/21 01:29:19;;;;;;;1.98;1.27;;;6.40;99.90;;;;;;2108067;28;20179;-65
2021/05/21 01:30:21;;;;;;;2.40;1.10;;;6.40;99.90;;;;;;2107866;28;20277;-66
2021/05/21 01:31:23;;;;;;;1.60;1.33;;;6.30;99.90;;;;;;2106902;28;20197;-65
2021/05/21 01:32:24;;;;;;;1.50;1.08;;;6.30;99.90;;;;;;2107280;28;20182;-65
2021/05/21 01:33:24;;;;;;;2.10;1.13;;;6.30;99.90;;;;;;2107992;28;20667;-66
2021/05/21 01:34:25;;;;;;;1.93;1.27;;;6.30;99.90;;;;;;2107874;28;20189;-66
2021/05/21 01:35:26;;;;;;;1.20;1.10;;;6.30;99.90;;;;;;2107892;28;20175;-66
2021/05/21 01:36:27;;;;;;;1.43;0.90;;;6.30;99.90;;;;;;2107879;28;20183;-66
2021/05/21 01:37:27;;;;;;;2.58;1.20;;;6.30;99.90;;;;;;2107810;28;20277;-65
2021/05/21 01:38:28;;;;;;;2.87;1.13;;;6.30;99.90;;;;;;2109167;28;20262;-66
2021/05/21 01:39:36;;;;;;;2.07;1.20;;;6.30;99.90;;;;;;2113050;28;20661;-66
2021/05/21 01:40:38;;;;;;;3.40;1.38;;;6.30;99.90;;;;;;2104257;28;20294;-66
2021/05/21 01:41:42;;;;;;;3.53;1.40;;;6.30;99.90;;;;;;2102984;28;20268;-65
2021/05/21 01:42:43;;;;;;;1.50;1.30;;;6.30;99.90;;;;;;2105701;28;20241;-65
2021/05/21 01:43:44;;;;;;;2.47;1.20;;;6.30;99.90;;;;;;2108512;28;20236;-65
2021/05/21 01:44:45;;;;;;;1.43;1.20;;;6.20;99.90;;;;;;2107332;28;20775;-65
2021/05/21 01:45:46;;;;;;;2.00;1.20;;;6.20;99.90;;;;;;2107208;28;20270;-65
2021/05/21 01:46:47;;;;;;;1.20;1.10;;;6.20;99.90;;;;;;2107475;28;20190;-66
2021/05/21 01:47:48;;;;;;;2.23;1.40;;;6.20;99.90;;;;;;2107314;28;20695;-65
2021/05/21 01:48:49;;;;;;;2.28;1.13;;;6.10;99.90;;;;;;2107946;28;20207;-66
2021/05/21 01:49:50;;;;;;;2.60;1.33;;;6.10;99.90;;;;;;2107905;28;20266;-65
2021/05/21 01:50:50;;;;;;;1.60;1.50;;;6.10;99.90;;;;;;2107900;28;20258;-66
2021/05/21 01:51:57;;;;;;;3.00;1.27;;;6.10;99.90;;;;;;2107739;28;20175;-66
2021/05/21 01:52:58;;;;;;;1.65;1.15;;;6.10;99.90;;;;;;2107801;28;20246;-65
2021/05/21 01:54:19;;;;;;;2.17;1.60;;;6.10;99.90;;;;;;2108080;28;20185;-66
2021/05/21 01:55:21;;;;;;;4.00;1.67;;;6.10;99.90;;;;;;2107597;28;20183;-66
2021/05/21 01:56:24;;;;;;;1.50;1.40;;;6.10;99.90;;;;;;2107956;28;20574;-65
2021/05/21 01:57:25;;;;;;;1.50;1.40;;;6.00;99.90;;;;;;2107770;28;20637;-65
2021/05/21 01:58:26;;;;;;;1.90;1.33;;;6.00;99.90;;;;;;2107875;28;20270;-65
2021/05/21 01:59:27;;;;;;;1.40;1.30;;;5.90;99.90;;;;;;2107796;28;20182;-65
2021/05/21 02:00:28;;;;;;;1.70;1.30;;;6.00;99.90;;;;;;2107874;28;20185;-66
2021/05/21 02:01:28;;;;;;;1.45;1.30;;;5.90;99.90;;;;;;2107665;28;20175;-65
2021/05/21 02:02:29;;;;;;;1.73;1.40;;;5.90;99.90;;;;;;2106765;28;20222;-66
2021/05/21 02:03:31;;;;;;;1.30;1.20;;;5.90;99.90;;;;;;2105207;28;20175;-65
2021/05/21 02:04:42;;;;;;;1.20;1.10;;;5.90;99.90;;;;;;2106606;28;20754;-66
2021/05/21 02:05:42;;;;;;;1.95;1.30;;;5.90;99.90;;;;;;2106357;28;20214;-65
2021/05/21 02:06:43;;;;;;;2.23;1.27;;;5.90;99.90;;;;;;2106658;28;20194;-66
2021/05/21 02:07:46;;;;;;;3.60;1.60;;;5.80;99.90;;;;;;2106536;28;20810;-66
2021/05/21 02:08:47;;;;;;;1.92;1.40;;;5.80;99.90;;;;;;2106451;28;20177;-65
2021/05/21 02:10:04;;;;;;;1.40;1.30;;;5.80;99.90;;;;;;2106254;28;20300;-65
2021/05/21 02:11:05;;;;;;;1.25;1.15;;;5.80;99.90;;;;;;2106589;28;20250;-66
2021/05/21 02:12:06;;;;;;;1.47;1.33;;;5.80;99.90;;;;;;2106205;28;20186;-66
2021/05/21 02:13:07;;;;;;;2.03;1.20;;;5.80;99.90;;;;;;2106429;28;20182;-66
2021/05/21 02:14:08;;;;;;;2.70;1.30;;;5.80;99.90;;;;;;2106252;28;20186;-66
2021/05/21 02:15:09;;;;;;;1.47;1.37;;;5.70;99.90;;;;;;2106529;28;20171;-66
2021/05/21 02:16:10;;;;;;;3.60;1.55;;;5.80;99.90;;;;;;2106247;28;20199;-66
2021/05/21 02:17:11;;;;;;;1.60;1.40;;;5.70;99.90;;;;;;2106494;28;20243;-66
2021/05/21 02:18:12;;;;;;;1.80;1.00;;;5.70;99.90;;;;;;2106460;28;20184;-66
2021/05/21 02:19:13;;;;;;;3.33;1.20;;;5.80;99.90;;;;;;2106576;28;20175;-65
2021/05/21 02:20:14;;;;;;;1.20;1.00;;;5.80;99.90;;;;;;2106431;28;20186;-66
2021/05/21 02:21:15;;;;;;;1.73;1.10;;;5.90;99.90;;;;;;2106076;28;20188;-66
2021/05/21 02:22:20;;;;;;;1.40;1.27;;;5.90;99.90;;;;;;2106287;28;20239;-66
2021/05/21 02:23:20;;;;;;;1.35;1.20;;;5.90;99.90;;;;;;2106548;28;20257;-66
2021/05/21 02:24:21;;;;;;;1.63;1.30;;;6.00;99.90;;;;;;2106278;28;20544;-66
2021/05/21 02:25:22;;;;;;;2.43;1.10;;;6.00;99.90;;;;;;2105670;28;20206;-65
2021/05/21 02:26:22;;;;;;;1.40;1.20;;;6.00;99.90;;;;;;2105598;28;20257;-65
2021/05/21 02:27:24;;;;;;;1.30;1.20;;;5.90;99.90;;;;;;2105741;28;20206;-65
2021/05/21 02:28:25;;;;;;;1.52;1.38;;;5.90;99.90;;;;;;2105701;28;20189;-66
2021/05/21 02:29:26;;;;;;;1.23;1.13;;;5.90;99.90;;;;;;2106292;28;20653;-65
2021/05/21 02:30:27;;;;;;;1.40;1.30;;;5.90;99.90;;;;;;2106141;28;20354;-66
2021/05/21 02:31:27;;;;;;;1.37;1.27;;;5.90;99.90;;;;;;2106032;28;20206;-66
2021/05/21 02:32:29;;;;;;;2.10;1.30;;;5.90;99.90;;;;;;2106297;28;20182;-65
2021/05/21 02:33:29;;;;;;;2.40;1.30;;;6.00;99.90;;;;;;2106364;28;20190;-66
2021/05/21 02:34:30;;;;;;;1.20;1.10;;;5.90;99.90;;;;;;2106338;28;20328;-65
2021/05/21 02:35:31;;;;;;;1.70;1.20;;;5.90;99.90;;;;;;2106249;28;20179;-66
2021/05/21 02:36:31;;;;;;;2.53;1.10;;;5.90;99.90;;;;;;2106222;28;20632;-66
2021/05/21 02:37:32;;;;;;;2.53;1.30;;;5.90;99.90;;;;;;2106295;28;20258;-65
2021/05/21 02:38:33;;;;;;;1.80;1.27;;;5.90;99.90;;;;;;2106275;28;20170;-66
2021/05/21 02:39:34;;;;;;;1.73;1.10;;;6.00;99.90;;;;;;2106232;28;20208;-66
2021/05/21 02:40:34;;;;;;;1.42;1.15;;;6.00;99.90;;;;;;2106297;28;20648;-66
2021/05/21 02:41:35;;;;;;;1.20;1.10;;;6.00;99.90;;;;;;2105872;28;20175;-65
2021/05/21 02:42:37;;;;;;;1.37;1.17;;;6.00;99.90;;;;;;2106351;28;20663;-66
2021/05/21 02:43:38;;;;;;;1.38;1.20;;;6.10;99.90;;;;;;2106253;28;20189;-66
2021/05/21 02:44:38;;;;;;;1.33;1.20;;;6.10;99.90;;;;;;2106380;28;20268;-66
2021/05/21 02:45:39;;;;;;;1.40;1.00;;;6.10;99.90;;;;;;2106106;28;20209;-65
2021/05/21 02:46:40;;;;;;;1.23;1.10;;;6.10;99.90;;;;;;2106360;28;20186;-66
2021/05/21 02:47:41;;;;;;;3.57;1.00;;;6.10;99.90;;;;;;2106174;28;20432;-66
2021/05/21 02:48:42;;;;;;;1.20;1.00;;;6.10;99.90;;;;;;2106364;28;20175;-65
2021/05/21 02:49:42;;;;;;;2.10;1.20;;;6.10;99.90;;;;;;2106191;28;20231;-66
2021/05/21 02:50:43;;;;;;;1.40;1.17;;;6.20;99.90;;;;;;2106347;28;20180;-65
2021/05/21 02:51:44;;;;;;;1.40;1.13;;;6.20;99.90;;;;;;2106077;28;20171;-65
2021/05/21 02:52:44;;;;;;;1.70;1.13;;;6.10;99.90;;;;;;2106283;28;20187;-66
2021/05/21 02:53:45;;;;;;;2.70;1.37;;;6.10;99.90;;;;;;2106224;28;20175;-66
2021/05/21 02:54:46;;;;;;;2.47;1.17;;;6.10;99.90;;;;;;2106375;28;20182;-65
2021/05/21 02:55:46;;;;;;;1.50;1.40;;;6.10;99.90;;;;;;2106207;28;20229;-66
2021/05/21 02:56:47;;;;;;;3.00;1.20;;;6.10;99.90;;;;;;2106248;28;20175;-65
2021/05/21 02:57:48;;;;;;;1.87;1.07;;;6.10;99.90;;;;;;2096512;28;20187;-65
2021/05/21 02:58:49;;;;;;;2.40;1.30;;;6.10;99.90;;;;;;2101173;28;20283;-66
2021/05/21 02:59:53;;;;;;;2.37;1.20;;;6.00;99.90;;;;;;2102049;28;20492;-66
2021/05/21 03:00:53;;;;;;;1.27;1.17;;;6.00;99.90;;;;;;2114650;28;20178;-66
2021/05/21 03:01:54;;;;;;;1.30;1.10;;;6.10;99.90;;;;;;2114332;28;20229;-65
2021/05/21 03:02:56;;;;;;;1.93;1.10;;;6.00;99.90;;;;;;2114663;28;20181;-65
2021/05/21 03:03:56;;;;;;;2.58;1.30;;;6.00;99.90;;;;;;2114545;28;20727;-65
2021/05/21 03:04:57;;;;;;;1.93;1.50;;;6.00;99.90;;;;;;2114822;27;20177;-66
2021/05/21 03:05:58;;;;;;;1.70;1.20;;;6.00;99.90;;;;;;2113796;28;20201;-66
2021/05/21 03:06:58;;;;;;;1.20;1.10;;;5.90;99.90;;;;;;2114006;28;20185;-66
2021/05/21 03:07:59;;;;;;;1.70;1.20;;;5.90;99.90;;;;;;2114520;28;20178;-66
2021/05/21 03:09:00;;;;;;;1.10;1.00;;;5.90;99.90;;;;;;2114552;28;20200;-65
2021/05/21 03:10:01;;;;;;;3.37;1.13;;;5.90;99.90;;;;;;2113751;28;20683;-65
2021/05/21 03:11:01;;;;;;;3.10;1.23;;;5.90;99.90;;;;;;2113962;28;20197;-65
2021/05/21 03:12:03;;;;;;;1.70;1.30;;;5.90;99.90;;;;;;2114262;28;20277;-66
2021/05/21 03:13:04;;;;;;;1.58;1.10;;;5.90;99.90;;;;;;2114575;28;20206;-66
2021/05/21 03:14:05;;;;;;;2.00;1.03;;;5.90;99.90;;;;;;2114189;28;20201;-65
2021/05/21 03:15:06;;;;;;;0.97;0.90;;;5.90;99.90;;;;;;2113501;28;20177;-66
2021/05/21 03:16:07;;;;;;;0.90;0.90;;;5.90;99.90;;;;;;2113643;28;20197;-66
2021/05/21 03:17:07;;;;;;;1.20;1.10;;;5.90;99.90;;;;;;2113993;28;20253;-66
2021/05/21 03:18:13;;;;;;;1.90;1.30;;;5.90;99.90;;;;;;2114491;28;20829;-66
2021/05/21 03:19:13;;;;;;;1.50;1.15;;;6.00;99.90;;;;;;2114340;28;20178;-66
2021/05/21 03:20:15;;;;;;;1.20;1.10;;;6.00;99.90;;;;;;2114428;28;20205;-65
2021/05/21 03:21:15;;;;;;;2.40;1.20;;;6.00;99.90;;;;;;2114325;28;20180;-66
2021/05/21 03:22:16;;;;;;;2.33;1.30;;;5.90;99.90;;;;;;2114378;28;20723;-65
2021/05/21 03:23:17;;;;;;;1.60;1.17;;;5.90;99.90;;;;;;2114458;28;20209;-66
2021/05/21 03:24:18;;;;;;;2.75;1.42;;;5.90;99.90;;;;;;2114234;28;20601;-66
2021/05/21 03:25:19;;;;;;;2.60;1.30;;;5.90;99.90;;;;;;2114279;28;20181;-66
2021/05/21 03:26:19;;;;;;;1.50;1.10;;;5.80;99.90;;;;;;2114319;28;20178;-66
2021/05/21 03:27:20;;;;;;;1.27;1.10;;;5.70;99.90;;;;;;2114463;27;20189;-66
2021/05/21 03:28:21;;;;;;;2.23;1.70;;;5.70;99.90;;;;;;2114375;28;20185;-65
2021/05/21 03:29:22;;;;;;;2.40;1.30;;;5.70;99.90;;;;;;2114499;28;20754;-66
2021/05/21 03:30:22;;;;;;;2.57;1.30;;;5.70;99.90;;;;;;2114132;28;20710;-66
2021/05/21 03:31:23;;;;;;;1.33;1.13;;;5.70;99.90;;;;;;2114291;28;20177;-65
2021/05/21 03:32:24;;;;;;;2.83;1.53;;;5.70;99.90;;;;;;2114333;28;20170;-65
2021/05/21 03:33:25;;;;;;;1.88;1.10;;;5.70;99.90;;;;;;2114355;28;20177;-65
2021/05/21 03:34:26;;;;;;;2.43;1.30;;;5.70;99.90;;;;;;2114132;28;20179;-66
2021/05/21 03:35:27;;;;;;;1.67;1.40;;;5.70;99.90;;;;;;2114124;28;20174;-66
2021/05/21 03:36:27;;;;;;;1.10;1.00;;;5.70;99.90;;;;;;2113714;28;20175;-66
2021/05/21 03:37:28;;;;;;;2.70;1.30;;;5.80;99.90;;;;;;2113914;28;20171;-66
2021/05/21 03:38:29;;;;;;;2.07;1.20;;;5.80;99.90;;;;;;2114417;28;20673;-65
2021/05/21 03:39:29;;;;;;;3.87;2.30;;;5.90;99.90;;;;;;2114260;28;20189;-66
2021/05/21 03:40:32;;;;;;;2.20;1.63;;;5.90;99.90;;;;;;2114204;27;20182;-66
2021/05/21 03:41:34;;;;;;;2.55;1.48;;;5.90;99.90;;;;;;2113933;28;20171;-66
2021/05/21 03:42:35;;;;;;;2.33;1.45;;;5.90;99.90;;;;;;2114334;28;20185;-65
2021/05/21 03:43:36;;;;;;;3.40;1.30;;;5.90;99.90;;;;;;2114273;28;20262;-65
2021/05/21 03:44:37;;;;;;;1.90;1.37;;;5.90;99.90;;;;;;2114255;28;20704;-65
2021/05/21 03:45:37;;;;;;;2.57;1.50;;;5.80;99.90;;;;;;2113802;28;20218;-65
2021/05/21 03:46:38;;;;;;;1.87;1.20;;;5.80;99.90;;;;;;2114062;28;20547;-66
2021/05/21 03:47:39;;;;;;;3.83;1.30;;;5.80;99.90;;;;;;2114015;28;20178;-65
2021/05/21 03:48:40;;;;;;;2.03;1.50;;;5.80;99.90;;;;;;2113940;28;20178;-66
2021/05/21 03:49:40;;;;;;;2.23;1.40;;;5.90;99.90;;;;;;2107643;28;20689;-65
2021/05/21 03:50:41;;;;;;;2.13;1.10;;;5.90;99.90;;;;;;2105438;28;20212;-65
2021/05/21 03:51:43;;;;;;;1.37;1.27;;;5.80;99.90;;;;;;2105736;28;20189;-65
2021/05/21 03:52:44;;;;;;;2.45;1.20;;;5.80;99.90;;;;;;2106061;28;20175;-65
2021/05/21 03:53:45;;;;;;;1.73;1.40;;;5.90;99.90;;;;;;2106094;28;20201;-66
2021/05/21 03:54:46;;;;;;;2.80;1.23;;;5.80;99.90;;;;;;2106094;28;20238;-65
2021/05/21 03:55:46;;;;;;;1.77;1.13;;;5.80;99.90;;;;;;2105834;28;20218;-66
2021/05/21 03:56:47;;;;;;;2.10;1.10;;;5.80;99.90;;;;;;2106001;28;20770;-65
2021/05/21 03:57:48;;;;;;;1.20;1.10;;;5.80;99.90;;;;;;2105921;28;20677;-65
2021/05/21 03:58:51;;;;;;;1.47;1.07;;;5.90;99.90;;;;;;2106191;28;20185;-66
2021/05/21 03:59:52;;;;;;;1.40;1.30;;;5.90;99.90;;;;;;2096853;28;20175;-66
2021/05/21 04:00:54;;;;;;;1.90;1.40;;;6.00;99.90;;;;;;2097020;28;20241;-65
2021/05/21 04:01:55;;;;;;;3.03;1.67;;;6.00;99.90;;;;;;2105652;28;20637;-66
2021/05/21 04:02:56;;;;;;;3.20;1.70;;;6.00;99.90;;;;;;2105961;28;20273;-66
2021/05/21 04:03:56;;;;;;;1.53;1.43;;;5.90;99.90;;;;;;2105140;28;20719;-66
2021/05/21 04:04:57;;;;;;;2.27;1.67;;;5.90;99.90;;;;;;2105481;28;20242;-66
2021/05/21 04:05:58;;;;;;;2.17;1.65;;;5.90;99.90;;;;;;2105959;28;20207;-66
2021/05/21 04:06:59;;;;;;;1.80;1.40;;;5.90;99.90;;;;;;2105323;28;20214;-66
2021/05/21 04:08:00;;;;;;;1.80;1.43;;;5.90;99.90;;;;;;2105114;28;20197;-65
2021/05/21 04:09:06;;;;;;;1.85;1.67;;;5.80;99.90;;;;;;2106102;28;20700;-66
2021/05/21 04:10:07;;;;;;;1.60;1.50;;;5.80;99.90;;;;;;2105948;28;20272;-65
2021/05/21 04:11:07;;;;;;;1.90;1.80;;;5.80;99.90;;;;;;2105763;28;20185;-65
2021/05/21 04:12:08;;;;;;;2.43;1.80;;;5.80;99.90;;;;;;2105846;28;20193;-66
2021/05/21 04:13:09;;;;;;;2.77;1.67;;;5.70;99.90;;;;;;2105865;28;20182;-66
2021/05/21 04:14:10;;;;;;;1.97;1.53;;;5.70;99.90;;;;;;2106027;28;20647;-65
2021/05/21 04:15:11;;;;;;;2.10;1.33;;;5.70;99.90;;;;;;2105997;28;20193;-65
2021/05/21 04:16:13;;;;;;;2.63;1.50;;;5.70;99.90;;;;;;2105701;28;20880;-66
2021/05/21 04:17:14;;;;;;;2.28;1.17;;;5.70;99.90;;;;;;2105948;28;20241;-66
2021/05/21 04:18:15;;;;;;;1.50;1.40;;;5.70;99.90;;;;;;2105712;28;20525;-66
2021/05/21 04:19:16;;;;;;;2.22;1.60;;;5.70;99.90;;;;;;2105732;28;20181;-66
2021/05/21 04:20:16;;;;;;;2.20;1.57;;;5.70;99.90;;;;;;2105857;28;20190;-66
2021/05/21 04:21:18;;;;;;;1.57;1.47;;;5.70;99.90;;;;;;2105402;28;20288;-66
2021/05/21 04:22:19;;;;;;;1.55;1.23;;;5.70;99.90;;;;;;2105571;28;20530;-65
2021/05/21 04:23:20;;;;;;;3.53;1.40;;;5.70;99.90;;;;;;2105618;28;20251;-65
2021/05/21 04:24:21;;;;;;;1.83;1.20;;;5.70;99.90;;;;;;2105425;28;20741;-65
2021/05/21 04:25:21;;;;;;;1.40;1.30;;;5.70;99.90;;;;;;2104904;28;20193;-66
2021/05/21 04:26:22;;;;;;;5.03;1.43;;;5.80;99.90;;;;;;2104639;28;20190;-66
2021/05/21 04:27:23;;;;;;;4.47;1.97;;;5.80;99.90;;;;;;2105551;28;20174;-65
2021/05/21 04:28:24;;;;;;;2.67;2.00;;;5.80;99.90;;;;;;2105694;28;20650;-65
2021/05/21 04:29:24;;;;;;;2.40;1.40;;;5.80;99.90;;;;;;2105409;28;20173;-66
2021/05/21 04:30:26;;;;;;;3.03;1.47;;;5.80;99.90;;;;;;2105568;28;20685;-66
2021/05/21 04:31:27;;;;;;;1.48;1.38;;;5.90;99.90;;;;;;2105223;28;20182;-65
2021/05/21 04:32:27;;;;;;;2.90;1.37;;;5.90;99.90;;;;;;2105699;28;20263;-66
2021/05/21 04:33:28;;;;;;;2.70;1.30;;;6.00;99.90;;;;;;2105466;28;20889;-65
2021/05/21 04:34:29;;;;;;;1.20;1.10;;;6.00;99.90;;;;;;2105544;28;20180;-66
2021/05/21 04:35:30;;;;;;;1.30;1.00;;;6.10;99.90;;;;;;2105263;28;20178;-66
2021/05/21 04:36:30;;;;;;;2.13;1.30;;;6.10;99.90;;;;;;2105516;28;20179;-65
2021/05/21 04:37:31;;;;;;;2.03;1.30;;;6.10;99.90;;;;;;2105669;28;20183;-66
2021/05/21 04:38:32;;;;;;;2.17;1.20;;;6.10;99.90;;;;;;2105685;28;20599;-66
2021/05/21 04:39:33;;;;;;;2.50;1.40;;;6.20;99.90;;;;;;2105639;28;20178;-66
2021/05/21 04:40:33;;;;;;;6.17;1.47;;;6.30;99.90;;;;;;2105467;28;20213;-65
2021/05/21 04:41:34;;;;;;;2.43;1.17;;;6.30;99.90;;;;;;2105175;28;20252;-66
2021/05/21 04:42:35;;;;;;;1.20;1.10;;;6.40;99.90;;;;;;2105537;28;20178;-66
2021/05/21 04:43:35;;;;;;;1.77;1.17;;;6.50;99.90;;;;;;2105474;28;20185;-66
2021/05/21 04:44:36;;;;;;;2.70;1.20;;;6.50;99.90;;;;;;2105544;28;20175;-65
2021/05/21 04:45:37;;;;;;;3.13;1.23;;;6.50;99.90;;;;;;2105146;28;20688;-65
2021/05/21 04:46:38;;;;;;;2.03;1.20;;;6.60;99.90;;;;;;2105542;28;20183;-66
2021/05/21 04:47:39;;;;;;;2.30;0.98;;;6.60;99.90;;;;;;2105295;28;20179;-65
2021/05/21 04:48:40;;;;;;;1.27;1.13;;;6.70;99.90;;;;;;2105599;28;20262;-66
2021/05/21 04:49:41;;;;;;;1.42;1.10;;;6.70;99.90;;;;;;2105295;28;20183;-66
2021/05/21 04:50:42;;;;;;;3.37;1.27;;;6.80;99.90;;;;;;2105419;28;20657;-66
2021/05/21 04:51:42;;;;;;;1.30;1.20;;;6.80;99.90;;;;;;2105104;28;20182;-65
2021/05/21 04:52:43;;;;;;;1.20;1.10;;;6.80;99.90;;;;;;2105511;28;20278;-66
2021/05/21 04:53:44;;;;;;;1.20;1.10;;;6.90;99.90;;;;;;2105360;28;20206;-65
2021/05/21 04:54:44;;;;;;;1.53;1.00;;;7.00;99.90;;;;;;2105491;28;20179;-66
2021/05/21 04:55:46;;;;;;;1.20;1.00;;;7.00;99.90;;;;;;2105204;28;20286;-65
2021/05/21 04:56:47;;;;;;;2.17;1.50;;;7.00;99.90;;;;;;2106062;28;20167;-64
2021/05/21 04:57:51;;;;;;;1.00;0.90;;;7.10;99.90;;;;;;2098377;28;20214;-65
2021/05/21 04:58:51;;;;;;;2.40;1.10;;;7.10;99.90;;;;;;2098714;28;20187;-65
2021/05/21 04:59:52;;;;;;;2.97;1.03;;;7.10;99.90;;;;;;2098790;28;20191;-66
2021/05/21 05:00:53;;;;;;;2.30;1.30;;;7.20;99.90;;;;;;2098695;28;20186;-65
2021/05/21 05:01:54;;;;;;;1.20;0.97;;;7.30;99.90;;;;;;2089414;28;20179;-65
2021/05/21 05:02:55;;;;;;;1.37;1.23;;;7.30;99.90;;;;;;2089734;28;20173;-65
2021/05/21 05:03:55;;;;;;;2.40;1.00;;;7.30;99.90;;;;;;2098724;28;20553;-65
2021/05/21 05:04:56;;;;;;;1.00;1.00;;;7.40;99.90;;;;;;2098871;28;20206;-66
2021/05/21 05:05:57;;;;;;;1.10;1.00;;;7.40;99.90;;;;;;2098332;28;20272;-65
2021/05/21 05:06:58;;;;;;;1.33;1.00;;;7.50;99.90;;;;;;2104410;28;20804;-65
2021/05/21 05:07:58;;;;;;;2.50;0.90;;;7.60;99.90;;;;;;2099349;28;20686;-65
2021/05/21 05:08:59;;;;;;;1.13;1.03;;;7.60;99.90;;;;;;2098555;28;20177;-65
2021/05/21 05:10:00;;;;;;;1.10;1.00;;;7.60;99.90;;;;;;2098743;28;20253;-65
2021/05/21 05:11:04;;;;;;;1.37;0.90;;;7.60;99.90;;;;;;2099238;28;20187;-65
2021/05/21 05:12:08;;;;;;;1.33;1.00;;;7.70;99.90;;;;;;2099180;28;20183;-65
2021/05/21 05:13:12;;;;;;;1.50;0.93;;;7.70;99.90;;;;;;2099352;28;20183;-65
2021/05/21 05:14:13;;;;;;;1.08;0.93;;;7.80;99.90;;;;;;2098580;28;20199;-66
2021/05/21 05:15:14;;;;;;;2.15;0.90;;;7.90;99.90;;;;;;2097997;28;20214;-65
2021/05/21 05:16:15;;;;;;;0.80;0.80;;;7.90;99.90;;;;;;2098733;28;20180;-66
2021/05/21 05:17:15;;;;;;;1.70;1.00;;;8.00;99.90;;;;;;2098772;28;20229;-65
2021/05/21 05:18:16;;;;;;;1.10;1.00;;;8.00;99.90;;;;;;2098757;28;20185;-66
2021/05/21 05:19:17;;;;;;;0.93;0.80;;;8.00;99.90;;;;;;2098727;28;20214;-65
2021/05/21 05:20:21;;;;;;;1.60;1.10;;;8.10;99.90;;;;;;2098177;28;20581;-66
2021/05/21 05:21:22;;;;;;;2.85;1.10;;;8.20;99.90;;;;;;2097712;28;20198;-66
2021/05/21 05:22:23;;;;;;;1.10;0.90;;;8.20;99.90;;;;;;2098079;28;20175;-65
2021/05/21 05:23:24;;;;;;;1.10;1.00;;;8.30;99.90;;;;;;2105663;28;20212;-66